Aérodrome :
LOGIN :

S'inscrire | Disclaimer

   EN    FR    IT 

 










Légende :    VFR   VFR Marginal   IFR   IFR Intensif   IFR Très Intensif
Visi : 
Plafond : 
>= 8 km
>= 3000ft
5 à 8 km
1000 à 3000 ft
1500m à 5 km
500 à 1000 ft
800 à 1500m
200 à 500 ft
< 800m
< 200 ft
Symboles :   Orages  Brouillard  Fortes neiges  Fortes précipitations  Vent > 20 kt
SIGMETs :   Divers  Orages  Givrage  Turbulence  Onde Orograph.  Cendres Volcan.







- Altitude de l'aérodrome : 14 ft
- Code IATA : BRE


EDDW - Bremen Neuenland

DERNIER METAR :
  • 201320Z 35010KT 310V050 9999 FEW028 24/14 Q1005 NOSIG

METARs EXPIRÉS :
  • 201250Z 35008KT 280V040 9999 FEW028 23/14 Q1005 NOSIG
  • 201220Z 34008KT 300V040 9999 FEW028 23/14 Q1005 NOSIG
  • 201150Z 36007KT 310V050 9999 FEW028 22/15 Q1005 NOSIG
  • 201120Z 02007KT 320V080 9999 FEW013 21/15 Q1005 NOSIG
  • 201050Z 35007KT 300V050 9999 FEW013 20/15 Q1005 NOSIG

TAF TAF EDDW
Valide du 20 à 12h jusqu'au 21 à 12h UTC


201100Z 2012/2112 02006KT 9999 SCT030
BECMG 2015/2017 32008KT
BECMG 2019/2021 BKN008
TEMPO 2022/2102 4500 BR BKN004
TEMPO 2102/2112 3500 -RADZ BKN004
PROB30
TEMPO 2102/2110 2500 RA
Pas de NOTAMs connus pour ce terrain.
4 SIGMETs publiés pour la FIR Bremen (EDWW) :
 
Annulation du SIGMET 1 
EDWW SIGMET 4 VALID 201343/201410 EDZF
EDWW BREMEN FIR CNL SIGMET 1 201211/201410=
Orages en lignes de grains avec grêle
EDWW SIGMET 2 VALID 201335/201530 EDZF
EDWW BREMEN FIR SQL TSGR OBS S OF N5320 AND E OF E01330 TOP FL380 MOV W 20KT NC=
SIGMET 1  ANNULÉ :
Orages en lignes de grains avec grêle
EDWW SIGMET 1 VALID 201335/201530 EDZF
EDWW BREMEN FIR SQL TSGR OBS S OF N5320 AND E OF E01330 TOP FL380 MOV W 20KT NC=
Orages fréquents avec grêle
EDWW SIGMET 1 VALID 201211/201410 EDZF
EDWW BREMEN FIR FRQ TSGR FCST APRX 20NM WID LINE BTN N5137 E01012 - N5123 E01028 TOP FL350 MOV SSW 20KT NC=



MET'MAP, la Météo Aéronautique d'un coup d'oeil ! - Copyright ORBIFLY Décembre 2007 - Disclaimer

ORBIFLY MET'MAP TEAM :

Programmation & Développement : Alexandra Zaïnal
Conception & Développement : Baudouin d'Aumeries
Co-Programmation & Développement : Marc-Olivier Méhu
Soutien technique & logistique : Manuel Goepfert

Contact : metmap@orbifly.com




SOURCES & CREDITS :

   NOAA